Time;durP1;ratioP1;P1;durP2;ratioP2;P2;SDS_P1;SDS_P2;PMS_P1;PMS_P2;Temp;Humidity;BMP_temperature;BMP_pressure;BME280_temperature;BME280_humidity;BME280_pressure;Samples;Min_cycle;Max_cycle;Signal;HPM_P1;HPM_P2
2023/01/11 00:00:11;;;;;;;10.85;3.67;;;12.00;90.70;;;;;;4981097;28;20660;-76
2023/01/11 00:02:37;;;;;;;9.70;3.20;;;12.00;90.70;;;;;;4991799;28;20062;-75
2023/01/11 00:05:04;;;;;;;10.07;3.35;;;12.00;90.70;;;;;;4986955;28;20481;-75
2023/01/11 00:07:29;;;;;;;11.07;3.10;;;12.00;90.60;;;;;;4989832;28;20079;-75
2023/01/11 00:09:55;;;;;;;8.90;2.88;;;12.00;90.50;;;;;;4977537;28;20030;-75
2023/01/11 00:12:21;;;;;;;8.18;2.80;;;12.10;90.50;;;;;;4980922;28;20196;-76
2023/01/11 00:14:47;;;;;;;10.75;3.08;;;12.10;90.50;;;;;;4985721;28;20065;-75
2023/01/11 00:17:12;;;;;;;11.25;3.15;;;12.10;90.60;;;;;;4980591;28;20035;-75
2023/01/11 00:19:38;;;;;;;12.23;3.17;;;12.10;90.50;;;;;;4983835;28;20226;-75
2023/01/11 00:22:03;;;;;;;11.13;2.80;;;12.10;90.50;;;;;;4980156;28;20403;-75
2023/01/11 00:24:29;;;;;;;10.02;2.70;;;12.10;90.30;;;;;;4981781;28;20030;-75
2023/01/11 00:26:55;;;;;;;8.20;2.72;;;12.20;90.30;;;;;;4973977;28;20031;-75
2023/01/11 00:29:21;;;;;;;9.40;2.88;;;12.10;90.40;;;;;;4985231;28;20030;-75
2023/01/11 00:31:46;;;;;;;8.43;2.47;;;12.10;90.50;;;;;;4982464;28;20115;-75
2023/01/11 00:34:12;;;;;;;9.18;2.80;;;12.20;90.60;;;;;;4982747;28;20139;-75
2023/01/11 00:36:38;;;;;;;6.50;2.53;;;12.10;90.80;;;;;;4979184;28;20034;-75
2023/01/11 00:39:03;;;;;;;9.68;2.63;;;12.20;90.90;;;;;;4981128;28;20030;-75
2023/01/11 00:49:42;;;;;;;9.05;3.15;;;12.10;91.10;;;;;;4980794;28;20041;-74
2023/01/11 00:52:09;;;;;;;5.68;2.08;;;12.10;91.20;;;;;;4984004;28;20039;-75
2023/01/11 00:54:39;;;;;;;8.38;2.72;;;12.10;91.60;;;;;;4975609;28;20118;-74
2023/01/11 00:57:08;;;;;;;7.35;2.47;;;12.10;91.70;;;;;;4980493;28;20490;-74
2023/01/11 00:59:34;;;;;;;6.15;2.33;;;12.10;91.80;;;;;;4982839;28;20188;-75
2023/01/11 01:02:00;;;;;;;5.57;2.25;;;12.10;92.00;;;;;;4975249;28;20243;-75
2023/01/11 01:04:26;;;;;;;5.68;1.98;;;12.10;92.20;;;;;;4991327;28;20121;-75
2023/01/11 01:06:52;;;;;;;8.00;2.38;;;12.10;92.20;;;;;;4982486;28;20844;-75
2023/01/11 01:09:17;;;;;;;6.15;2.30;;;12.10;92.30;;;;;;4990574;28;20379;-74
2023/01/11 01:11:43;;;;;;;6.47;2.55;;;12.00;92.50;;;;;;4991599;28;20065;-75
2023/01/11 01:14:25;;;;;;;6.07;2.20;;;12.10;92.50;;;;;;4984490;28;20022;-75
2023/01/11 01:16:52;;;;;;;8.05;3.20;;;12.10;92.50;;;;;;4978619;28;20059;-75
2023/01/11 01:19:20;;;;;;;7.20;2.40;;;12.10;92.60;;;;;;4981126;28;20080;-75
2023/01/11 01:21:45;;;;;;;6.07;2.47;;;12.10;92.60;;;;;;4988816;28;20033;-75
2023/01/11 01:24:11;;;;;;;7.72;2.75;;;12.00;92.70;;;;;;4987891;28;20475;-75
2023/01/11 01:26:37;;;;;;;6.40;2.38;;;12.00;92.80;;;;;;4988228;28;20026;-75
2023/01/11 01:29:03;;;;;;;6.20;2.70;;;12.10;93.00;;;;;;4988414;28;20623;-75
2023/01/11 01:31:28;;;;;;;7.80;3.00;;;12.00;93.10;;;;;;4983385;28;20125;-75
2023/01/11 01:33:54;;;;;;;6.25;2.70;;;12.00;93.20;;;;;;4994785;28;20030;-74
2023/01/11 01:36:20;;;;;;;7.75;2.70;;;11.90;93.40;;;;;;4983795;28;20038;-75
2023/01/11 01:38:46;;;;;;;6.35;2.63;;;11.90;93.50;;;;;;4988397;28;20038;-75
2023/01/11 01:41:12;;;;;;;8.30;3.22;;;11.90;93.60;;;;;;4983382;28;20031;-75
2023/01/11 01:43:50;;;;;;;7.82;2.60;;;11.90;93.70;;;;;;4985359;28;20088;-75
2023/01/11 01:46:17;;;;;;;7.85;2.55;;;11.90;93.80;;;;;;4974797;28;20029;-75
2023/01/11 01:48:47;;;;;;;7.40;3.10;;;11.90;93.80;;;;;;4980951;28;20034;-74
2023/01/11 01:51:23;;;;;;;5.80;2.75;;;11.90;93.80;;;;;;4983605;28;20043;-75
2023/01/11 01:53:53;;;;;;;8.95;3.30;;;11.90;93.90;;;;;;4981715;28;20841;-75
2023/01/11 01:56:25;;;;;;;9.25;3.28;;;11.90;94.00;;;;;;4985886;28;20206;-75
2023/01/11 01:58:58;;;;;;;6.18;2.92;;;11.90;94.00;;;;;;4977465;28;20378;-75
2023/01/11 02:04:30;;;;;;;12.03;2.73;;;11.90;94.10;;;;;;4981140;28;20081;-75
2023/01/11 02:07:05;;;;;;;8.25;3.17;;;11.80;94.20;;;;;;4978775;28;20121;-75
2023/01/11 02:09:40;;;;;;;8.13;2.65;;;11.90;94.20;;;;;;4987194;28;20037;-75
2023/01/11 02:12:06;;;;;;;7.40;3.03;;;11.90;94.20;;;;;;4983828;28;20046;-75
2023/01/11 02:14:34;;;;;;;8.57;3.17;;;11.90;94.20;;;;;;4992092;28;20513;-75
2023/01/11 02:17:00;;;;;;;7.45;2.65;;;11.90;94.20;;;;;;4986090;28;20659;-75
2023/01/11 02:19:45;;;;;;;6.70;2.40;;;11.90;94.30;;;;;;4987917;28;20034;-75
2023/01/11 02:22:33;;;;;;;5.10;2.85;;;11.90;94.30;;;;;;4980733;28;20030;-76
2023/01/11 02:25:36;;;;;;;6.10;2.80;;;11.90;94.30;;;;;;4981671;28;20026;-75
2023/01/11 02:28:31;;;;;;;7.60;2.92;;;11.90;94.30;;;;;;4978406;28;20495;-76
2023/01/11 02:31:10;;;;;;;9.02;3.10;;;11.90;94.30;;;;;;4979370;28;20034;-76
2023/01/11 02:34:09;;;;;;;7.57;2.85;;;11.90;94.30;;;;;;4983067;28;20042;-75
2023/01/11 02:36:53;;;;;;;6.95;2.88;;;11.90;94.40;;;;;;4983252;28;20057;-74
2023/01/11 02:39:44;;;;;;;9.32;3.40;;;11.80;94.40;;;;;;4983172;28;20414;-75
2023/01/11 02:45:34;;;;;;;7.20;2.95;;;11.90;94.60;;;;;;4984197;28;20095;-75
2023/01/11 02:48:20;;;;;;;5.32;2.88;;;11.90;94.50;;;;;;4980173;28;20108;-75
2023/01/11 02:51:00;;;;;;;7.47;3.53;;;11.90;94.60;;;;;;4985652;28;20038;-75
2023/01/11 02:53:54;;;;;;;7.75;3.08;;;11.90;94.60;;;;;;4984823;28;20066;-75
2023/01/11 02:56:24;;;;;;;4.80;2.95;;;11.90;94.60;;;;;;4986628;28;20089;-75
2023/01/11 02:58:52;;;;;;;6.90;3.22;;;11.90;94.70;;;;;;4985628;28;20121;-75
2023/01/11 03:01:21;;;;;;;5.30;2.90;;;11.90;94.70;;;;;;4983593;28;20057;-74
2023/01/11 03:03:47;;;;;;;5.50;2.70;;;12.00;94.80;;;;;;4986143;28;20231;-76
2023/01/11 03:06:19;;;;;;;3.60;2.17;;;12.10;94.70;;;;;;4989966;28;20121;-75
2023/01/11 03:08:53;;;;;;;6.15;2.17;;;12.10;94.60;;;;;;4984482;28;20058;-75
2023/01/11 03:14:39;;;;;;;3.97;2.08;;;12.10;94.60;;;;;;4985984;28;20131;-75
2023/01/11 03:17:11;;;;;;;5.18;2.20;;;12.10;94.60;;;;;;4978860;28;20050;-75
2023/01/11 03:19:51;;;;;;;3.30;2.00;;;12.10;94.60;;;;;;4994048;28;20030;-74
2023/01/11 03:22:30;;;;;;;4.95;2.30;;;12.10;94.50;;;;;;4990738;28;20037;-75
2023/01/11 03:25:11;;;;;;;4.93;2.20;;;12.20;94.40;;;;;;4984864;28;20390;-77
2023/01/11 03:27:49;;;;;;;4.82;1.75;;;12.10;94.40;;;;;;4986103;28;20041;-74
2023/01/11 03:30:23;;;;;;;5.07;2.20;;;12.10;94.40;;;;;;4979214;28;20046;-75
2023/01/11 03:33:04;;;;;;;5.47;2.40;;;12.10;94.30;;;;;;4984795;28;20030;-74
2023/01/11 03:35:48;;;;;;;4.10;2.20;;;12.10;94.40;;;;;;4984195;28;20470;-75
2023/01/11 03:38:26;;;;;;;6.00;2.58;;;12.10;94.40;;;;;;4988601;28;20037;-75
2023/01/11 03:41:00;;;;;;;4.43;2.53;;;12.10;94.40;;;;;;4987359;28;20938;-75
2023/01/11 03:43:27;;;;;;;7.00;2.97;;;12.10;94.40;;;;;;4986776;28;20035;-76
2023/01/11 03:46:07;;;;;;;9.27;3.17;;;12.10;94.30;;;;;;4984424;28;20038;-75
2023/01/11 03:48:47;;;;;;;9.23;3.20;;;12.00;94.30;;;;;;4991005;28;20128;-75
2023/01/11 03:51:18;;;;;;;6.93;3.30;;;12.10;94.30;;;;;;4986127;28;20033;-75
2023/01/11 03:53:47;;;;;;;7.57;2.95;;;12.00;94.20;;;;;;4986042;28;20717;-76
2023/01/11 03:56:16;;;;;;;7.55;2.83;;;12.00;94.20;;;;;;4983173;28;20038;-75
2023/01/11 03:58:43;;;;;;;7.72;2.35;;;12.00;94.10;;;;;;4991042;28;20034;-76
2023/01/11 04:01:09;;;;;;;6.07;2.20;;;12.00;94.00;;;;;;4984191;28;20073;-77
2023/01/11 04:03:35;;;;;;;12.40;2.72;;;11.90;93.90;;;;;;4985067;28;20153;-75
2023/01/11 04:06:01;;;;;;;7.15;2.60;;;11.90;93.80;;;;;;4978712;28;20467;-75
2023/01/11 04:08:28;;;;;;;9.13;2.58;;;11.90;93.60;;;;;;4986006;28;20031;-76
2023/01/11 04:10:55;;;;;;;10.93;2.63;;;11.80;93.50;;;;;;4985927;28;20034;-75
2023/01/11 04:13:20;;;;;;;9.60;2.47;;;11.90;93.30;;;;;;4984143;28;20038;-75
2023/01/11 04:15:46;;;;;;;13.55;2.75;;;11.80;93.10;;;;;;4982605;28;20077;-77
2023/01/11 04:18:11;;;;;;;8.85;2.90;;;11.70;93.00;;;;;;4982287;28;20045;-76
2023/01/11 04:20:39;;;;;;;14.50;3.28;;;11.70;92.70;;;;;;4992958;28;20089;-76
2023/01/11 04:23:06;;;;;;;13.40;3.22;;;11.70;92.60;;;;;;4989735;28;20033;-75
2023/01/11 04:25:32;;;;;;;14.68;3.60;;;11.60;92.30;;;;;;4982722;28;20026;-75
2023/01/11 04:27:59;;;;;;;18.00;3.40;;;11.60;92.00;;;;;;4987982;28;20214;-75
2023/01/11 04:30:25;;;;;;;24.98;4.47;;;11.60;91.70;;;;;;4983517;28;20043;-75
2023/01/11 04:32:52;;;;;;;19.52;4.82;;;11.60;91.40;;;;;;4994749;28;20022;-76
2023/01/11 04:35:18;;;;;;;19.75;5.00;;;11.60;91.30;;;;;;4990717;28;20038;-75
2023/01/11 04:37:44;;;;;;;18.95;4.32;;;11.50;91.20;;;;;;4988779;28;20038;-75
2023/01/11 04:40:10;;;;;;;17.00;3.85;;;11.50;91.00;;;;;;4978695;28;20037;-75
2023/01/11 04:42:36;;;;;;;18.38;4.68;;;11.50;91.10;;;;;;4991716;28;20035;-75
2023/01/11 04:45:04;;;;;;;20.15;4.75;;;11.50;90.70;;;;;;4983306;28;20406;-75
2023/01/11 04:47:31;;;;;;;20.90;4.93;;;11.50;90.40;;;;;;4991833;28;20765;-75
2023/01/11 04:49:56;;;;;;;19.63;5.00;;;11.50;90.40;;;;;;4984839;28;20037;-75
2023/01/11 04:52:22;;;;;;;22.45;4.60;;;11.50;90.40;;;;;;4978599;28;20043;-75
2023/01/11 04:54:51;;;;;;;18.92;4.18;;;11.50;90.20;;;;;;4985189;28;20070;-75
2023/01/11 04:57:16;;;;;;;23.35;5.07;;;11.40;90.10;;;;;;4997753;28;20034;-75
2023/01/11 04:59:42;;;;;;;29.95;5.25;;;11.40;90.30;;;;;;4994778;28;20022;-76
2023/01/11 05:02:08;;;;;;;24.20;5.50;;;11.40;90.20;;;;;;4990070;28;20726;-76
2023/01/11 05:04:33;;;;;;;18.80;5.43;;;11.30;90.20;;;;;;4983312;28;20102;-75
2023/01/11 05:07:00;;;;;;;26.40;6.13;;;11.30;90.20;;;;;;4979926;28;20046;-75
2023/01/11 05:09:25;;;;;;;25.95;5.72;;;11.30;90.20;;;;;;4988071;28;20018;-76
2023/01/11 05:11:51;;;;;;;30.67;6.15;;;11.20;90.00;;;;;;4992884;28;20081;-75
2023/01/11 05:14:17;;;;;;;21.77;4.85;;;11.10;90.10;;;;;;4986155;28;20037;-75
2023/01/11 05:16:43;;;;;;;22.77;5.63;;;11.10;90.10;;;;;;4981330;28;20034;-75
2023/01/11 05:19:12;;;;;;;28.73;5.70;;;11.10;90.10;;;;;;4978269;28;20040;-75
2023/01/11 05:21:40;;;;;;;24.85;6.00;;;11.00;90.10;;;;;;4976681;28;20118;-75
2023/01/11 05:24:09;;;;;;;20.92;6.28;;;11.00;89.90;;;;;;4985205;28;20026;-76
2023/01/11 05:26:36;;;;;;;25.98;6.28;;;11.00;89.50;;;;;;4987571;28;20069;-75
2023/01/11 05:29:08;;;;;;;25.73;6.68;;;11.00;89.30;;;;;;4987036;28;20068;-76
2023/01/11 05:31:35;;;;;;;28.73;6.53;;;10.90;89.30;;;;;;4976494;28;20057;-75
2023/01/11 05:34:01;;;;;;;22.80;5.32;;;10.90;89.30;;;;;;4980058;28;20084;-75
2023/01/11 05:36:27;;;;;;;29.42;6.32;;;10.80;89.10;;;;;;4979842;28;20766;-75
2023/01/11 05:38:55;;;;;;;29.27;5.47;;;10.80;89.10;;;;;;4981330;28;20026;-75
2023/01/11 05:41:23;;;;;;;24.50;5.40;;;10.70;89.00;;;;;;4979742;28;20064;-75
2023/01/11 05:46:36;;;;;;;22.35;4.95;;;10.60;88.40;;;;;;4980162;28;20880;-75
2023/01/11 05:49:02;;;;;;;22.50;5.75;;;10.60;88.40;;;;;;4980877;28;20663;-75
2023/01/11 05:51:29;;;;;;;18.95;4.80;;;10.60;88.10;;;;;;4980532;28;20125;-75
2023/01/11 05:53:59;;;;;;;22.17;4.65;;;10.60;87.80;;;;;;4981287;28;20033;-75
2023/01/11 05:56:25;;;;;;;22.60;4.70;;;10.50;87.60;;;;;;4979645;28;20086;-75
2023/01/11 05:58:51;;;;;;;20.38;4.60;;;10.50;87.60;;;;;;4989273;28;20066;-75
2023/01/11 06:01:19;;;;;;;22.05;5.03;;;10.50;87.60;;;;;;4982508;28;20173;-76
2023/01/11 06:03:45;;;;;;;22.30;5.03;;;10.50;87.50;;;;;;4980143;28;20062;-75
2023/01/11 06:06:12;;;;;;;21.60;4.50;;;10.50;87.40;;;;;;4977382;28;20034;-75
2023/01/11 06:08:37;;;;;;;20.98;5.00;;;10.40;87.30;;;;;;4978153;28;20076;-76
2023/01/11 06:11:03;;;;;;;23.33;5.00;;;10.40;87.40;;;;;;4982807;28;20046;-76
2023/01/11 06:13:29;;;;;;;22.08;5.60;;;10.30;87.40;;;;;;4981231;28;20037;-76
2023/01/11 06:16:16;;;;;;;19.65;4.53;;;10.20;87.50;;;;;;4980584;28;20037;-75
2023/01/11 06:18:44;;;;;;;19.55;4.28;;;10.20;87.70;;;;;;4981507;28;20026;-76
2023/01/11 06:21:12;;;;;;;23.33;4.97;;;10.10;87.40;;;;;;4977858;28;20050;-75
2023/01/11 06:23:41;;;;;;;20.40;4.28;;;10.10;87.20;;;;;;4981624;28;20383;-76
2023/01/11 06:26:09;;;;;;;21.95;4.18;;;10.10;87.40;;;;;;4982780;28;20121;-76
2023/01/11 06:28:36;;;;;;;20.90;4.32;;;10.10;87.40;;;;;;4986185;28;20649;-75
2023/01/11 06:31:02;;;;;;;22.10;4.95;;;10.00;87.50;;;;;;4980554;28;20806;-76
2023/01/11 06:33:28;;;;;;;23.08;4.03;;;10.00;87.30;;;;;;4985535;28;20037;-76
2023/01/11 06:35:55;;;;;;;17.50;4.20;;;9.90;87.50;;;;;;4978774;28;20372;-76
2023/01/11 06:38:22;;;;;;;20.90;4.30;;;9.90;87.50;;;;;;4986911;28;20084;-76
2023/01/11 06:40:59;;;;;;;22.80;4.97;;;9.80;87.60;;;;;;4994905;28;20053;-76
2023/01/11 06:43:25;;;;;;;18.40;4.10;;;9.80;87.70;;;;;;5011485;28;20091;-76
2023/01/11 06:45:51;;;;;;;23.33;4.30;;;9.80;87.70;;;;;;5002913;28;20514;-75
2023/01/11 06:48:19;;;;;;;22.00;5.22;;;9.70;87.80;;;;;;5020593;28;20029;-75
2023/01/11 06:50:53;;;;;;;20.15;5.55;;;9.70;87.90;;;;;;5009211;28;20057;-76
2023/01/11 06:53:19;;;;;;;16.05;4.05;;;9.70;88.10;;;;;;5013504;28;20037;-75
2023/01/11 06:55:49;;;;;;;23.35;4.72;;;9.60;88.20;;;;;;5005120;28;20045;-74
2023/01/11 06:58:15;;;;;;;22.20;4.63;;;9.60;88.40;;;;;;5003546;28;20542;-74
2023/01/11 07:00:41;;;;;;;27.65;5.00;;;9.60;88.40;;;;;;5006341;28;20064;-75
2023/01/11 07:03:06;;;;;;;18.65;3.80;;;9.60;88.50;;;;;;5007973;28;20022;-76
2023/01/11 07:05:33;;;;;;;18.08;4.70;;;9.50;88.70;;;;;;5006467;28;20418;-75
2023/01/11 07:07:59;;;;;;;21.65;5.18;;;9.50;88.70;;;;;;5006585;28;20140;-76
2023/01/11 07:10:25;;;;;;;18.35;4.15;;;9.50;88.90;;;;;;5012325;28;20682;-75
2023/01/11 07:12:50;;;;;;;18.90;4.35;;;9.50;88.80;;;;;;4991939;28;20036;-76
2023/01/11 07:15:16;;;;;;;22.42;4.63;;;9.50;88.80;;;;;;5003793;28;20053;-76
2023/01/11 07:17:43;;;;;;;19.77;4.45;;;9.50;88.70;;;;;;4997242;28;20045;-75
2023/01/11 07:20:09;;;;;;;17.73;4.50;;;9.40;88.80;;;;;;5010320;28;20048;-76
2023/01/11 07:22:35;;;;;;;23.45;5.00;;;9.30;89.00;;;;;;5011675;28;20084;-75
2023/01/11 07:25:03;;;;;;;19.48;5.97;;;9.30;89.00;;;;;;5008886;28;20378;-76
2023/01/11 07:27:29;;;;;;;25.50;5.43;;;9.30;89.10;;;;;;5020372;28;20044;-75
2023/01/11 07:29:55;;;;;;;21.73;4.65;;;9.30;89.20;;;;;;5021285;28;20037;-72
2023/01/11 07:32:20;;;;;;;21.10;4.57;;;9.20;89.20;;;;;;5005914;28;20034;-71
2023/01/11 07:34:46;;;;;;;19.80;5.13;;;9.20;89.30;;;;;;5017928;28;20151;-72
2023/01/11 07:37:12;;;;;;;26.45;5.72;;;9.10;89.30;;;;;;5006654;28;20050;-72
2023/01/11 07:39:37;;;;;;;26.83;5.65;;;9.10;89.30;;;;;;5006598;28;20057;-72
2023/01/11 07:44:48;;;;;;;29.30;5.47;;;9.10;89.60;;;;;;5003047;28;20576;-72
2023/01/11 07:47:14;;;;;;;28.05;6.25;;;9.10;89.60;;;;;;5003755;28;20161;-72
2023/01/11 07:49:39;;;;;;;17.58;4.60;;;9.10;89.70;;;;;;5004952;28;20026;-72
2023/01/11 07:52:05;;;;;;;22.38;5.25;;;9.00;89.70;;;;;;5003258;28;20120;-72
2023/01/11 07:54:31;;;;;;;25.55;5.32;;;9.00;89.70;;;;;;5008765;28;20026;-72
2023/01/11 07:56:56;;;;;;;25.10;5.65;;;9.00;89.70;;;;;;5014901;28;20072;-72
2023/01/11 07:59:22;;;;;;;26.45;4.93;;;8.90;89.70;;;;;;5019818;28;20075;-72
2023/01/11 08:01:48;;;;;;;28.48;5.25;;;8.90;89.70;;;;;;5004421;28;20066;-72
2023/01/11 08:04:14;;;;;;;23.40;5.55;;;8.90;89.70;;;;;;5008669;28;20045;-72
2023/01/11 08:06:40;;;;;;;26.95;4.93;;;8.90;89.70;;;;;;5006464;28;20084;-72
2023/01/11 08:09:08;;;;;;;25.10;4.72;;;8.90;89.70;;;;;;5010870;28;20025;-72
2023/01/11 08:17:02;;;;;;;21.47;5.90;;;8.80;89.60;;;;;;5004379;28;20113;-73
2023/01/11 08:19:28;;;;;;;18.42;4.22;;;8.80;89.60;;;;;;5002860;28;20367;-72
2023/01/11 08:21:54;;;;;;;27.85;6.60;;;8.90;89.50;;;;;;5006113;28;20034;-72
2023/01/11 08:24:20;;;;;;;20.48;5.05;;;8.90;89.50;;;;;;5004299;28;20786;-73
2023/01/11 08:26:46;;;;;;;21.85;4.75;;;8.90;89.40;;;;;;5007956;28;20038;-73
2023/01/11 08:29:12;;;;;;;24.63;5.32;;;8.90;89.40;;;;;;5003827;28;20049;-74
2023/01/11 08:31:38;;;;;;;26.50;4.63;;;8.90;89.40;;;;;;5004413;28;20117;-73
2023/01/11 08:34:04;;;;;;;23.20;4.90;;;8.90;89.30;;;;;;5006433;28;20402;-72
2023/01/11 08:36:31;;;;;;;22.77;5.15;;;8.90;89.40;;;;;;5007805;28;20087;-73
2023/01/11 08:38:57;;;;;;;22.35;4.95;;;8.90;89.30;;;;;;5003756;28;20501;-73
2023/01/11 08:41:24;;;;;;;26.73;5.00;;;8.90;89.30;;;;;;5005950;28;20647;-73
2023/01/11 08:43:50;;;;;;;26.10;5.65;;;8.90;89.30;;;;;;5001019;28;20029;-73
2023/01/11 08:46:16;;;;;;;30.13;6.10;;;9.00;89.30;;;;;;5006593;28;20152;-73
2023/01/11 08:48:42;;;;;;;30.35;6.70;;;9.10;89.20;;;;;;5000787;28;20057;-73
2023/01/11 08:51:08;;;;;;;22.77;5.25;;;9.10;88.90;;;;;;4998512;28;20070;-73
2023/01/11 08:53:34;;;;;;;31.73;7.60;;;9.10;88.90;;;;;;5001850;28;20060;-72
2023/01/11 08:56:00;;;;;;;24.30;7.07;;;9.10;89.00;;;;;;5010258;28;20037;-72
2023/01/11 08:58:26;;;;;;;32.25;7.55;;;9.20;88.90;;;;;;5004578;28;20018;-72
2023/01/11 09:00:51;;;;;;;32.58;7.43;;;9.20;88.70;;;;;;5008399;28;20406;-72
2023/01/11 09:03:17;;;;;;;24.92;6.53;;;9.30;88.60;;;;;;5002510;28;20033;-72
2023/01/11 09:05:44;;;;;;;23.75;5.72;;;9.60;88.00;;;;;;5010058;28;20077;-73
2023/01/11 09:08:10;;;;;;;28.90;6.47;;;9.60;87.60;;;;;;5007951;28;20033;-73
2023/01/11 09:10:36;;;;;;;28.02;6.07;;;9.70;87.20;;;;;;5008920;28;20026;-73
2023/01/11 09:13:02;;;;;;;21.67;5.03;;;9.70;86.90;;;;;;4997530;28;20033;-73
2023/01/11 09:15:28;;;;;;;21.55;5.15;;;9.80;86.80;;;;;;5006764;28;20407;-72
2023/01/11 09:17:54;;;;;;;24.30;5.30;;;9.80;86.80;;;;;;4985514;28;20053;-72
2023/01/11 09:20:20;;;;;;;33.83;6.28;;;9.90;86.60;;;;;;5008042;28;20092;-73
2023/01/11 09:22:47;;;;;;;29.23;6.70;;;9.90;86.20;;;;;;5000343;28;20091;-73
2023/01/11 09:25:14;;;;;;;28.75;5.68;;;10.10;86.00;;;;;;5002150;28;20199;-72
2023/01/11 09:27:47;;;;;;;27.73;7.10;;;10.10;85.40;;;;;;5002630;28;20037;-72
2023/01/11 09:30:16;;;;;;;24.63;5.38;;;10.10;85.50;;;;;;5002129;28;20189;-73
2023/01/11 09:32:42;;;;;;;34.00;6.82;;;10.20;85.10;;;;;;5002382;28;20018;-73
2023/01/11 09:35:08;;;;;;;21.20;5.72;;;10.30;84.60;;;;;;5007500;28;20437;-73
2023/01/11 09:37:40;;;;;;;24.35;5.93;;;10.40;84.20;;;;;;5003704;28;20057;-73
2023/01/11 09:40:13;;;;;;;26.83;4.90;;;10.50;84.20;;;;;;5005220;28;20141;-72
2023/01/11 09:42:39;;;;;;;25.83;6.50;;;10.50;84.00;;;;;;5000218;28;20091;-72
2023/01/11 09:45:13;;;;;;;32.47;7.13;;;10.50;83.60;;;;;;5003165;28;20021;-72
2023/01/11 09:47:55;;;;;;;29.83;6.13;;;10.60;83.40;;;;;;5006109;28;20037;-72
2023/01/11 09:50:27;;;;;;;26.65;5.60;;;10.50;83.30;;;;;;4988229;28;20313;-72
2023/01/11 09:52:57;;;;;;;27.38;5.60;;;10.50;83.30;;;;;;5003370;28;20026;-71
2023/01/11 09:55:34;;;;;;;29.50;6.22;;;10.60;83.00;;;;;;5007954;28;20104;-71
2023/01/11 09:58:14;;;;;;;25.20;5.95;;;10.60;83.00;;;;;;5002213;28;20111;-71
2023/01/11 10:01:10;;;;;;;23.30;6.15;;;10.70;83.00;;;;;;5007128;28;20318;-72
2023/01/11 10:04:12;;;;;;;28.70;6.50;;;10.70;82.80;;;;;;5005219;28;20046;-71
2023/01/11 10:06:43;;;;;;;31.08;7.63;;;10.80;82.50;;;;;;4998807;28;20584;-73
2023/01/11 10:09:38;;;;;;;27.90;5.60;;;10.90;82.50;;;;;;5000390;28;20049;-72
2023/01/11 10:12:22;;;;;;;32.05;6.03;;;10.90;82.30;;;;;;4998573;28;20426;-71
2023/01/11 10:15:24;;;;;;;25.43;6.13;;;11.00;82.30;;;;;;5003498;28;20212;-72
2023/01/11 10:17:50;;;;;;;25.08;5.88;;;11.10;82.00;;;;;;4996752;28;20305;-72
2023/01/11 10:20:23;;;;;;;22.80;5.05;;;11.10;81.70;;;;;;5017038;28;20040;-71
2023/01/11 10:22:54;;;;;;;26.52;5.85;;;11.20;81.30;;;;;;4998748;28;20035;-72
2023/01/11 10:25:29;;;;;;;23.95;6.40;;;11.20;81.10;;;;;;5002939;28;20507;-73
2023/01/11 10:27:59;;;;;;;26.13;5.45;;;11.20;81.20;;;;;;5010104;28;20033;-72
2023/01/11 10:33:44;;;;;;;30.13;5.70;;;11.40;81.70;;;;;;5010060;28;20017;-72
2023/01/11 10:36:49;;;;;;;22.65;4.55;;;11.60;81.00;;;;;;5004656;28;20557;-72
2023/01/11 10:42:28;;;;;;;22.85;5.13;;;11.40;80.70;;;;;;4992945;28;20315;-71
2023/01/11 10:45:04;;;;;;;31.88;6.00;;;11.40;80.80;;;;;;4996398;28;20037;-71
2023/01/11 10:47:50;;;;;;;18.05;4.95;;;11.30;81.00;;;;;;5007374;28;20044;-71
2023/01/11 10:50:26;;;;;;;33.33;5.90;;;11.20;81.20;;;;;;4998255;28;20036;-72
2023/01/11 10:53:16;;;;;;;23.90;4.93;;;11.10;81.70;;;;;;5007495;28;20026;-71
2023/01/11 10:55:42;;;;;;;22.25;4.93;;;11.00;81.50;;;;;;4988440;28;20045;-72
2023/01/11 10:58:09;;;;;;;26.20;5.50;;;11.00;81.80;;;;;;5004331;28;20037;-75
2023/01/11 11:00:50;;;;;;;27.65;5.38;;;11.00;81.80;;;;;;4994127;28;20041;-73
2023/01/11 11:03:27;;;;;;;19.38;5.28;;;11.10;82.00;;;;;;4999810;28;20689;-75
2023/01/11 11:06:18;;;;;;;23.02;5.72;;;11.10;82.00;;;;;;5004088;28;20045;-75
2023/01/11 11:09:13;;;;;;;25.83;5.28;;;11.20;81.40;;;;;;5004046;28;20108;-75
2023/01/11 11:12:00;;;;;;;22.55;5.53;;;11.20;81.60;;;;;;4999409;28;20045;-74
2023/01/11 11:14:34;;;;;;;28.23;5.22;;;11.20;81.50;;;;;;5002892;28;20037;-75
2023/01/11 11:17:08;;;;;;;24.55;6.05;;;11.30;81.50;;;;;;4998527;28;20029;-73
2023/01/11 11:19:34;;;;;;;28.65;6.03;;;11.30;81.20;;;;;;5010185;28;20830;-74
2023/01/11 11:22:00;;;;;;;27.25;6.57;;;11.50;80.80;;;;;;5002858;28;20482;-74
2023/01/11 11:24:46;;;;;;;26.85;7.13;;;11.60;80.50;;;;;;5011940;28;20105;-74
2023/01/11 11:27:25;;;;;;;30.70;7.07;;;11.60;80.60;;;;;;5000622;28;20034;-75
2023/01/11 11:29:54;;;;;;;28.08;6.13;;;11.80;80.20;;;;;;5015913;28;20482;-74
2023/01/11 11:32:35;;;;;;;26.55;6.22;;;12.00;79.90;;;;;;5004675;28;20529;-75
2023/01/11 11:35:00;;;;;;;25.92;5.88;;;12.10;78.90;;;;;;5015111;28;20078;-76
2023/01/11 11:37:41;;;;;;;28.33;6.18;;;12.10;78.80;;;;;;5003972;28;20073;-74
2023/01/11 11:40:28;;;;;;;28.83;6.35;;;12.00;78.90;;;;;;5011380;28;20057;-74
2023/01/11 11:43:22;;;;;;;31.40;6.78;;;11.80;78.80;;;;;;4976127;28;20031;-73
2023/01/11 11:45:51;;;;;;;25.48;5.43;;;11.90;79.10;;;;;;4982414;28;20037;-75
2023/01/11 11:48:17;;;;;;;27.02;5.57;;;11.90;79.00;;;;;;4977782;28;20033;-77
2023/01/11 11:50:45;;;;;;;26.83;4.93;;;11.80;78.80;;;;;;4982190;28;20038;-76
2023/01/11 11:53:31;;;;;;;31.50;6.75;;;11.80;78.80;;;;;;4978451;28;20022;-76
2023/01/11 11:55:57;;;;;;;28.10;6.65;;;11.80;79.20;;;;;;4974449;28;20034;-77
2023/01/11 11:58:24;;;;;;;24.00;4.95;;;11.90;79.20;;;;;;4973899;28;20034;-77
2023/01/11 12:00:52;;;;;;;26.13;5.22;;;11.70;78.50;;;;;;4974884;28;20166;-77
2023/01/11 12:03:22;;;;;;;27.73;5.88;;;11.70;78.70;;;;;;4973366;28;20031;-76
2023/01/11 12:05:51;;;;;;;24.77;6.22;;;11.70;78.30;;;;;;4974571;28;20045;-77
2023/01/11 12:08:17;;;;;;;22.77;5.10;;;11.90;78.10;;;;;;4975416;28;20038;-76
2023/01/11 12:10:50;;;;;;;26.40;5.00;;;11.80;77.70;;;;;;4976575;28;20797;-76
2023/01/11 12:13:57;;;;;;;28.52;5.68;;;11.90;78.20;;;;;;4976103;28;20030;-77
2023/01/11 12:16:30;;;;;;;21.45;5.72;;;12.10;77.40;;;;;;4971552;28;20267;-76
2023/01/11 12:18:55;;;;;;;17.60;5.18;;;12.20;76.80;;;;;;4975182;28;20026;-74
2023/01/11 12:21:26;;;;;;;22.88;5.50;;;12.00;76.80;;;;;;4989419;28;20038;-74
2023/01/11 12:24:17;;;;;;;27.20;4.80;;;11.90;76.30;;;;;;4976340;28;20030;-74
2023/01/11 12:27:25;;;;;;;24.30;5.43;;;11.80;77.20;;;;;;4976380;28;20054;-75
2023/01/11 12:29:53;;;;;;;25.20;5.90;;;11.70;78.00;;;;;;4990421;28;20105;-76
2023/01/11 12:33:09;;;;;;;27.73;5.63;;;11.80;78.40;;;;;;4977399;28;20042;-75
2023/01/11 12:35:42;;;;;;;;;;;11.80;78.00;;;;;;4991447;28;20033;-75
2023/01/11 12:38:10;;;;;;;27.70;6.00;;;11.80;77.70;;;;;;4992665;28;19996;-76
2023/01/11 12:41:04;;;;;;;25.60;6.28;;;12.10;77.40;;;;;;4986026;28;20042;-75
2023/01/11 12:43:45;;;;;;;20.83;5.00;;;12.10;76.50;;;;;;5000619;28;20038;-75
2023/01/11 12:46:20;;;;;;;27.48;4.95;;;12.10;77.30;;;;;;4988032;28;20034;-77
2023/01/11 12:49:15;;;;;;;20.38;5.28;;;12.30;76.40;;;;;;5001936;28;20064;-76
2023/01/11 12:52:01;;;;;;;17.25;4.15;;;12.40;75.40;;;;;;4993483;28;20506;-74
2023/01/11 12:55:11;;;;;;;17.08;3.97;;;12.50;74.20;;;;;;4990704;28;20085;-75
2023/01/11 12:57:59;;;;;;;20.10;4.30;;;12.40;74.00;;;;;;4984253;28;20073;-74
2023/01/11 13:00:55;;;;;;;21.40;4.70;;;12.40;73.00;;;;;;4984496;28;20038;-75
2023/01/11 13:03:55;;;;;;;16.80;4.25;;;12.30;73.40;;;;;;4996672;28;20036;-75
2023/01/11 13:06:35;;;;;;;18.60;4.38;;;12.20;73.40;;;;;;4992066;28;20127;-75
2023/01/11 13:09:00;;;;;;;21.48;4.05;;;12.20;74.20;;;;;;4987057;28;20038;-75
2023/01/11 13:12:11;;;;;;;15.73;4.45;;;12.30;73.70;;;;;;4982629;28;20046;-74
2023/01/11 13:14:47;;;;;;;20.88;4.45;;;12.10;74.30;;;;;;4987438;28;20053;-74
2023/01/11 13:17:31;;;;;;;17.48;4.28;;;12.10;73.70;;;;;;4978800;28;20145;-76
2023/01/11 13:20:18;;;;;;;19.45;3.90;;;12.10;74.30;;;;;;4987850;28;20045;-75
2023/01/11 13:23:10;;;;;;;17.90;4.20;;;12.10;74.00;;;;;;4976217;28;20119;-76
2023/01/11 13:25:40;;;;;;;22.45;4.88;;;12.10;74.40;;;;;;4984707;28;20030;-75
2023/01/11 13:28:23;;;;;;;20.35;4.68;;;12.00;74.70;;;;;;4985641;28;20026;-75
2023/01/11 13:30:49;;;;;;;21.83;4.28;;;11.90;75.20;;;;;;4979120;28;20041;-75
2023/01/11 13:33:21;;;;;;;18.33;4.18;;;11.90;75.70;;;;;;4985318;28;20045;-75
2023/01/11 13:36:13;;;;;;;24.40;3.85;;;11.90;75.30;;;;;;4985198;28;20029;-75
2023/01/11 13:38:48;;;;;;;23.38;4.78;;;11.90;75.40;;;;;;4983022;28;20045;-74
2023/01/11 13:41:30;;;;;;;;;;;11.90;75.80;;;;;;4977785;28;20038;-74